createdAt,value
2018-12-30T00:01:29.959Z,4.33
2018-12-30T00:03:58.915Z,4.30
2018-12-30T00:06:28.420Z,3.23
2018-12-30T00:08:57.713Z,3.37
2018-12-30T00:11:26.542Z,4.80
2018-12-30T00:13:55.384Z,5.07
2018-12-30T00:16:24.298Z,2.80
2018-12-30T00:18:53.189Z,2.93
2018-12-30T00:21:22.102Z,4.47
2018-12-30T00:23:50.943Z,3.87
2018-12-30T00:26:19.918Z,3.77
2018-12-30T00:28:48.875Z,5.77
2018-12-30T00:31:18.263Z,3.37
2018-12-30T00:33:47.347Z,3.67
2018-12-30T00:36:16.177Z,4.67
2018-12-30T00:38:45.133Z,4.93
2018-12-30T00:41:14.008Z,4.10
2018-12-30T00:43:42.890Z,4.70
2018-12-30T00:46:11.728Z,3.23
2018-12-30T00:48:40.629Z,5.80
2018-12-30T00:51:16.833Z,4.00
2018-12-30T00:53:40.065Z,3.93
2018-12-30T00:56:09.011Z,3.60
2018-12-30T00:58:37.976Z,3.63
2018-12-30T01:01:06.921Z,4.10
2018-12-30T01:03:35.825Z,4.20
2018-12-30T01:06:04.925Z,5.07
2018-12-30T01:08:33.745Z,4.17
2018-12-30T01:11:02.586Z,4.73
2018-12-30T01:13:31.454Z,4.43
2018-12-30T01:16:00.320Z,4.47
2018-12-30T01:18:29.127Z,4.20
2018-12-30T01:20:57.930Z,3.43
2018-12-30T01:23:26.901Z,3.63
2018-12-30T01:25:56.123Z,3.17
2018-12-30T01:28:25.051Z,3.40
2018-12-30T01:30:53.941Z,3.13
2018-12-30T01:33:22.778Z,3.27
2018-12-30T01:35:51.620Z,3.67
2018-12-30T01:38:21.030Z,3.90
2018-12-30T01:40:49.947Z,4.60
2018-12-30T01:43:18.826Z,3.83
2018-12-30T01:45:47.919Z,3.40
2018-12-30T01:48:16.752Z,4.87
2018-12-30T01:50:45.597Z,2.97
2018-12-30T01:53:14.560Z,2.70
2018-12-30T01:55:43.472Z,3.77
2018-12-30T01:58:12.488Z,3.23
2018-12-30T02:00:41.480Z,3.47
2018-12-30T02:03:10.526Z,2.47
2018-12-30T02:05:39.421Z,2.87
2018-12-30T02:08:08.367Z,2.83
2018-12-30T02:10:37.281Z,3.17
2018-12-30T02:13:06.177Z,3.73
2018-12-30T02:15:35.091Z,3.30
2018-12-30T02:18:03.998Z,2.70
2018-12-30T02:20:32.818Z,2.27
2018-12-30T02:23:01.771Z,2.87
2018-12-30T02:25:30.666Z,2.60
2018-12-30T02:27:59.510Z,2.73
2018-12-30T02:30:28.898Z,2.40
2018-12-30T02:32:57.750Z,3.03
2018-12-30T02:35:26.564Z,2.57
2018-12-30T02:37:55.412Z,2.97
2018-12-30T02:40:24.246Z,2.30
2018-12-30T02:42:53.161Z,2.40
2018-12-30T02:45:22.086Z,2.13
2018-12-30T02:47:51.012Z,3.03
2018-12-30T02:50:19.884Z,3.57
2018-12-30T02:52:48.727Z,1.80
2018-12-30T02:55:17.687Z,2.10
2018-12-30T02:57:46.552Z,3.00
2018-12-30T03:00:15.464Z,2.80
2018-12-30T03:02:44.360Z,2.53
2018-12-30T03:05:13.186Z,2.10
2018-12-30T03:07:42.039Z,2.30
2018-12-30T03:10:10.971Z,2.10
2018-12-30T03:12:39.874Z,3.73
2018-12-30T03:15:08.758Z,3.10
2018-12-30T03:17:37.670Z,2.57
2018-12-30T03:20:06.581Z,2.07
2018-12-30T03:22:35.408Z,2.30
2018-12-30T03:25:04.250Z,2.60
2018-12-30T03:27:33.153Z,3.33
2018-12-30T03:30:01.977Z,2.90
2018-12-30T03:32:30.833Z,2.90
2018-12-30T03:34:59.716Z,3.10
2018-12-30T03:37:28.554Z,2.37
2018-12-30T03:39:57.502Z,2.63
2018-12-30T03:42:26.384Z,2.17
2018-12-30T03:44:55.230Z,3.10
2018-12-30T03:47:24.143Z,2.53
2018-12-30T03:49:53.635Z,2.97
2018-12-30T03:52:22.551Z,3.23
2018-12-30T03:54:51.452Z,2.80
2018-12-30T03:57:20.320Z,2.27
2018-12-30T03:59:49.154Z,2.80
2018-12-30T04:02:17.966Z,2.00
2018-12-30T04:04:47.043Z,2.17
2018-12-30T04:07:15.866Z,2.37
2018-12-30T04:09:44.699Z,2.10
2018-12-30T04:12:13.658Z,2.43
2018-12-30T04:14:42.665Z,2.63
2018-12-30T04:17:11.499Z,2.40
2018-12-30T04:19:40.323Z,2.60
2018-12-30T04:22:16.672Z,1.43
2018-12-30T04:24:39.726Z,2.50
2018-12-30T04:27:08.570Z,2.80
2018-12-30T04:29:37.377Z,1.90
2018-12-30T04:32:06.225Z,1.80
2018-12-30T04:34:35.031Z,3.83
2018-12-30T04:37:03.884Z,3.00
2018-12-30T04:39:32.719Z,1.70
2018-12-30T04:42:01.568Z,1.90
2018-12-30T04:44:30.484Z,1.93
2018-12-30T04:46:59.330Z,2.53
2018-12-30T04:49:28.165Z,2.13
2018-12-30T04:51:56.986Z,2.17
2018-12-30T04:54:25.818Z,2.10
2018-12-30T04:56:54.641Z,3.27
2018-12-30T04:59:23.472Z,1.70
2018-12-30T05:01:52.282Z,1.77
2018-12-30T05:04:21.110Z,1.80
2018-12-30T05:06:50.021Z,2.50
2018-12-30T05:09:18.842Z,2.20
2018-12-30T05:14:18.722Z,1.47
2018-12-30T05:16:47.668Z,1.57
2018-12-30T05:19:16.499Z,2.13
2018-12-30T05:21:45.371Z,1.73
2018-12-30T05:24:14.253Z,1.60
2018-12-30T05:26:43.141Z,1.80
2018-12-30T05:29:11.991Z,1.70
2018-12-30T05:31:40.955Z,2.40
2018-12-30T05:34:09.829Z,2.20
2018-12-30T05:36:38.682Z,1.90
2018-12-30T05:39:07.715Z,1.10
2018-12-30T05:41:36.660Z,2.40
2018-12-30T05:44:05.497Z,1.83
2018-12-30T05:46:34.403Z,1.80
2018-12-30T05:49:03.247Z,1.47
2018-12-30T05:51:32.056Z,1.30
2018-12-30T05:54:01.033Z,2.03
2018-12-30T05:56:29.868Z,2.50
2018-12-30T05:58:58.766Z,1.50
2018-12-30T06:01:27.592Z,2.40
2018-12-30T06:03:56.550Z,2.10
2018-12-30T06:06:25.436Z,2.03
2018-12-30T06:08:54.331Z,1.80
2018-12-30T06:11:23.424Z,2.30
2018-12-30T06:13:52.302Z,2.43
2018-12-30T06:16:21.132Z,1.90
2018-12-30T06:18:49.950Z,2.00
2018-12-30T06:21:18.769Z,1.60
2018-12-30T06:23:47.730Z,2.50
2018-12-30T06:26:16.594Z,1.50
2018-12-30T06:28:45.603Z,2.23
2018-12-30T06:31:14.372Z,2.00
2018-12-30T06:33:43.275Z,2.23
2018-12-30T06:36:12.271Z,2.70
2018-12-30T06:38:41.063Z,2.47
2018-12-30T06:41:10.038Z,1.43
2018-12-30T06:43:38.914Z,2.60
2018-12-30T06:46:07.719Z,1.70
2018-12-30T06:48:36.567Z,2.07
2018-12-30T06:51:05.450Z,2.13
2018-12-30T06:53:34.299Z,2.07
2018-12-30T06:56:03.267Z,3.00
2018-12-30T06:58:32.155Z,3.27
2018-12-30T07:01:01.135Z,2.93
2018-12-30T07:03:29.991Z,2.10
2018-12-30T07:06:04.273Z,2.60
2018-12-30T07:08:33.091Z,2.07
2018-12-30T07:11:01.954Z,2.20
2018-12-30T07:13:30.754Z,1.70
2018-12-30T07:15:59.592Z,1.87
2018-12-30T07:18:28.489Z,1.83
2018-12-30T07:20:57.366Z,2.10
2018-12-30T07:23:26.352Z,1.77
2018-12-30T07:25:55.278Z,1.83
2018-12-30T07:28:24.114Z,2.37
2018-12-30T07:30:53.135Z,2.17
2018-12-30T07:33:23.039Z,2.87
2018-12-30T07:35:52.284Z,2.43
2018-12-30T07:38:21.243Z,2.50
2018-12-30T07:40:50.069Z,2.90
2018-12-30T07:43:18.930Z,2.17
2018-12-30T07:45:47.803Z,1.90
2018-12-30T07:48:16.691Z,2.00
2018-12-30T07:50:45.637Z,2.57
2018-12-30T07:53:14.595Z,1.87
2018-12-30T07:55:43.518Z,1.80
2018-12-30T07:58:12.431Z,2.43
2018-12-30T08:00:41.464Z,2.10
2018-12-30T08:03:10.336Z,1.50
2018-12-30T08:05:39.224Z,4.03
2018-12-30T08:08:08.028Z,3.50
2018-12-30T08:10:36.968Z,3.10
2018-12-30T08:13:05.858Z,2.70
2018-12-30T08:15:32.799Z,5.23
2018-12-30T08:18:01.625Z,2.50
2018-12-30T08:20:30.462Z,2.60
2018-12-30T08:22:59.323Z,3.67
2018-12-30T08:25:28.204Z,2.10
2018-12-30T08:27:57.057Z,3.60
2018-12-30T08:30:25.878Z,3.00
2018-12-30T08:32:54.856Z,2.33
2018-12-30T08:35:23.750Z,3.57
2018-12-30T08:37:52.604Z,3.40
2018-12-30T08:40:21.463Z,2.90
2018-12-30T08:42:50.288Z,2.97
2018-12-30T08:45:19.103Z,2.83
2018-12-30T08:47:48.040Z,3.63
2018-12-30T08:50:16.879Z,3.43
2018-12-30T08:52:45.764Z,3.50
2018-12-30T08:55:14.590Z,2.87
2018-12-30T08:57:43.554Z,3.20
2018-12-30T09:02:53.623Z,2.30
2018-12-30T09:05:22.459Z,3.47
2018-12-30T09:07:51.411Z,2.60
2018-12-30T09:10:20.311Z,3.83
2018-12-30T09:12:49.130Z,2.73
2018-12-30T09:15:18.185Z,3.30
2018-12-30T09:17:47.034Z,3.00
2018-12-30T09:20:15.863Z,3.00
2018-12-30T09:22:44.810Z,3.90
2018-12-30T09:25:13.812Z,3.13
2018-12-30T09:27:42.826Z,3.73
2018-12-30T09:30:11.664Z,3.60
2018-12-30T09:32:40.518Z,3.53
2018-12-30T09:35:09.478Z,3.20
2018-12-30T09:37:38.396Z,3.47
2018-12-30T09:40:07.451Z,3.20
2018-12-30T09:42:36.266Z,3.60
2018-12-30T09:45:05.401Z,3.30
2018-12-30T09:47:34.320Z,3.00
2018-12-30T09:50:03.215Z,4.10
2018-12-30T09:52:32.112Z,2.40
2018-12-30T09:55:01.000Z,3.40
2018-12-30T09:57:29.820Z,3.27
2018-12-30T09:59:58.667Z,3.60
2018-12-30T10:02:27.566Z,2.43
2018-12-30T10:04:56.439Z,2.97
2018-12-30T10:07:25.379Z,5.00
2018-12-30T10:09:54.201Z,3.57
2018-12-30T10:12:23.038Z,2.90
2018-12-30T10:14:51.884Z,3.13
2018-12-30T10:17:22.571Z,3.60
2018-12-30T10:19:51.447Z,3.87
2018-12-30T10:22:20.322Z,2.97
2018-12-30T10:24:49.194Z,3.33
2018-12-30T10:27:18.187Z,2.60
2018-12-30T10:29:47.138Z,2.43
2018-12-30T10:32:35.170Z,4.77
2018-12-30T10:35:04.212Z,2.60
2018-12-30T10:37:33.035Z,2.60
2018-12-30T10:40:01.918Z,2.70
2018-12-30T10:42:30.818Z,2.80
2018-12-30T10:44:59.056Z,2.97
2018-12-30T10:47:27.982Z,3.13
2018-12-30T10:49:56.923Z,3.30
2018-12-30T10:52:25.743Z,3.27
2018-12-30T10:54:54.691Z,4.13
2018-12-30T10:57:42.786Z,3.57
2018-12-30T11:00:13.338Z,3.03
2018-12-30T11:02:42.214Z,2.70
2018-12-30T11:05:11.299Z,2.90
2018-12-30T11:07:40.237Z,3.13
2018-12-30T11:10:09.323Z,3.93
2018-12-30T11:12:38.285Z,3.70
2018-12-30T11:15:07.309Z,3.03
2018-12-30T11:17:36.143Z,3.60
2018-12-30T11:20:05.371Z,3.90
2018-12-30T11:22:34.215Z,3.90
2018-12-30T11:25:03.146Z,3.23
2018-12-30T11:27:32.058Z,3.70
2018-12-30T11:30:00.978Z,3.50
2018-12-30T11:32:30.126Z,3.37
2018-12-30T11:35:02.034Z,3.10
2018-12-30T11:37:30.908Z,2.93
2018-12-30T11:39:59.789Z,2.77
2018-12-30T11:42:28.763Z,3.17
2018-12-30T11:44:57.603Z,3.27
2018-12-30T11:47:26.559Z,3.40
2018-12-30T11:49:55.537Z,3.80
2018-12-30T11:52:24.488Z,3.90
2018-12-30T11:54:53.409Z,4.17
2018-12-30T11:57:22.417Z,7.53
2018-12-30T11:59:51.276Z,3.77
2018-12-30T12:02:24.009Z,3.40
2018-12-30T12:04:50.931Z,3.80
2018-12-30T12:07:19.836Z,4.00
2018-12-30T12:09:48.764Z,4.23
2018-12-30T12:12:17.615Z,3.63
2018-12-30T12:14:46.514Z,3.50
2018-12-30T12:17:15.407Z,4.20
2018-12-30T12:19:44.288Z,4.00
2018-12-30T12:22:13.211Z,4.00
2018-12-30T12:24:42.256Z,4.83
2018-12-30T12:27:11.268Z,4.43
2018-12-30T12:29:40.078Z,4.07
2018-12-30T12:32:09.014Z,5.30
2018-12-30T12:34:37.841Z,4.30
2018-12-30T12:37:06.727Z,4.97
2018-12-30T12:39:35.540Z,5.00
2018-12-30T12:42:04.476Z,4.87
2018-12-30T12:44:33.806Z,6.30
2018-12-30T12:47:02.715Z,5.70
2018-12-30T12:49:31.587Z,5.77
2018-12-30T12:52:00.437Z,6.60
2018-12-30T12:54:32.307Z,6.30
2018-12-30T12:56:59.956Z,6.27
2018-12-30T12:59:28.798Z,5.10
2018-12-30T13:01:57.622Z,4.17
2018-12-30T13:04:26.576Z,5.20
2018-12-30T13:06:55.568Z,5.23
2018-12-30T13:09:24.393Z,4.50
2018-12-30T13:11:53.275Z,4.27
2018-12-30T13:14:41.903Z,5.67
2018-12-30T13:17:10.794Z,4.30
2018-12-30T13:19:39.814Z,5.93
2018-12-30T13:22:08.671Z,4.90
2018-12-30T13:24:40.086Z,4.70
2018-12-30T13:27:08.226Z,5.10
2018-12-30T13:29:37.544Z,4.67
2018-12-30T13:32:06.491Z,4.87
2018-12-30T13:34:35.839Z,6.27
2018-12-30T13:37:05.284Z,5.20
2018-12-30T13:39:34.292Z,4.93
2018-12-30T13:42:03.266Z,5.90
2018-12-30T13:44:32.188Z,4.80
2018-12-30T13:47:02.003Z,5.13
2018-12-30T13:49:31.245Z,4.97
2018-12-30T13:52:00.181Z,4.80
2018-12-30T13:54:29.037Z,5.20
2018-12-30T13:56:57.960Z,13.40
2018-12-30T13:59:26.928Z,5.97
2018-12-30T14:01:56.078Z,5.93
2018-12-30T14:04:25.088Z,5.57
2018-12-30T14:06:54.755Z,6.17
2018-12-30T14:09:23.686Z,5.27
2018-12-30T14:11:52.610Z,5.10
2018-12-30T14:14:21.455Z,6.20
2018-12-30T14:16:50.410Z,6.33
2018-12-30T14:19:19.322Z,6.73
2018-12-30T14:21:48.264Z,5.83
2018-12-30T14:24:17.086Z,6.50
2018-12-30T14:26:45.953Z,6.93
2018-12-30T14:29:14.867Z,5.93
2018-12-30T14:31:43.803Z,7.00
2018-12-30T14:34:12.648Z,7.67
2018-12-30T14:36:41.549Z,7.13
2018-12-30T14:39:10.604Z,7.53
2018-12-30T14:41:39.808Z,7.70
2018-12-30T14:44:08.737Z,6.40
2018-12-30T14:46:37.731Z,5.80
2018-12-30T14:49:06.599Z,7.83
2018-12-30T14:51:35.635Z,7.73
2018-12-30T14:54:04.576Z,6.07
2018-12-30T14:56:33.459Z,6.70
2018-12-30T14:59:02.303Z,6.60
2018-12-30T15:01:31.524Z,5.60
2018-12-30T15:04:00.372Z,7.17
2018-12-30T15:06:29.250Z,6.10
2018-12-30T15:08:58.246Z,6.63
2018-12-30T15:11:27.102Z,6.13
2018-12-30T15:13:56.022Z,5.70
2018-12-30T15:16:24.893Z,5.60
2018-12-30T15:18:53.694Z,5.70
2018-12-30T15:21:22.600Z,6.87
2018-12-30T15:23:51.509Z,5.73
2018-12-30T15:26:20.346Z,7.00
2018-12-30T15:28:49.190Z,6.30
2018-12-30T15:31:18.050Z,6.30
2018-12-30T15:33:46.875Z,6.43
2018-12-30T15:36:16.012Z,5.80
2018-12-30T15:38:44.868Z,6.83
2018-12-30T15:41:13.699Z,7.30
2018-12-30T15:43:42.586Z,7.07
2018-12-30T15:46:11.657Z,7.33
2018-12-30T15:48:40.528Z,8.17
2018-12-30T15:51:09.381Z,8.83
2018-12-30T15:53:38.191Z,8.50
2018-12-30T15:56:07.125Z,9.73
2018-12-30T15:58:36.862Z,8.90
2018-12-30T16:01:05.840Z,10.17
2018-12-30T16:03:34.675Z,10.50
2018-12-30T16:06:03.657Z,10.10
2018-12-30T16:08:32.570Z,9.70
2018-12-30T16:11:01.691Z,9.40
2018-12-30T16:13:30.558Z,10.90
2018-12-30T16:15:59.722Z,12.27
2018-12-30T16:18:28.572Z,12.23
2018-12-30T16:20:57.408Z,13.73
2018-12-30T16:23:26.347Z,11.97
2018-12-30T16:25:55.187Z,12.90
2018-12-30T16:28:24.031Z,12.47
2018-12-30T16:30:52.871Z,13.23
2018-12-30T16:33:21.711Z,14.90
2018-12-30T16:35:50.625Z,15.37
2018-12-30T16:38:19.539Z,15.10
2018-12-30T16:40:48.440Z,15.70
2018-12-30T16:43:17.318Z,14.60
2018-12-30T16:45:46.779Z,13.83
2018-12-30T16:48:15.745Z,14.97
2018-12-30T16:50:44.571Z,16.50
2018-12-30T16:53:13.677Z,14.50
2018-12-30T16:55:42.618Z,15.10
2018-12-30T16:58:11.526Z,16.67
2018-12-30T17:00:40.548Z,15.90
2018-12-30T17:03:09.563Z,15.00
2018-12-30T17:05:38.473Z,14.87
2018-12-30T17:08:07.634Z,17.47
2018-12-30T17:10:36.583Z,16.40
2018-12-30T17:13:05.452Z,16.00
2018-12-30T17:15:34.310Z,15.47
2018-12-30T17:18:03.304Z,15.60
2018-12-30T17:20:32.233Z,14.47
2018-12-30T17:23:01.130Z,14.60
2018-12-30T17:25:30.084Z,14.73
2018-12-30T17:27:59.033Z,15.17
2018-12-30T17:30:28.070Z,15.70
2018-12-30T17:32:56.909Z,16.20
2018-12-30T17:35:26.158Z,16.40
2018-12-30T17:37:54.976Z,16.20
2018-12-30T17:40:23.801Z,16.40
2018-12-30T17:42:52.658Z,16.83
2018-12-30T17:45:21.474Z,16.13
2018-12-30T17:47:50.532Z,16.00
2018-12-30T17:50:19.424Z,17.70
2018-12-30T17:52:48.324Z,15.77
2018-12-30T17:55:17.168Z,14.60
2018-12-30T17:57:46.092Z,15.67
2018-12-30T18:00:14.990Z,16.80
2018-12-30T18:02:43.939Z,15.87
2018-12-30T18:05:12.968Z,33.90
2018-12-30T18:07:41.864Z,22.70
2018-12-30T18:10:10.784Z,26.57
2018-12-30T18:12:39.620Z,28.73
2018-12-30T18:15:08.615Z,26.17
2018-12-30T18:17:41.376Z,20.87
2018-12-30T18:20:08.178Z,25.50
2018-12-30T18:22:37.020Z,24.43
2018-12-30T18:25:06.394Z,21.30
2018-12-30T18:27:35.226Z,21.93
2018-12-30T18:30:05.309Z,20.63
2018-12-30T18:32:34.302Z,20.20
2018-12-30T18:35:03.124Z,21.27
2018-12-30T18:37:32.043Z,22.80
2018-12-30T18:40:00.864Z,22.07
2018-12-30T18:42:29.702Z,22.30
2018-12-30T18:44:58.541Z,21.70
2018-12-30T18:47:27.364Z,25.33
2018-12-30T18:49:56.194Z,21.40
2018-12-30T18:52:25.095Z,17.40
2018-12-30T18:54:54.024Z,20.53
2018-12-30T18:57:23.015Z,19.93
2018-12-30T18:59:51.844Z,19.63
2018-12-30T19:02:20.715Z,17.03
2018-12-30T19:04:49.796Z,18.70
2018-12-30T19:07:18.646Z,19.43
2018-12-30T19:09:47.578Z,19.93
2018-12-30T19:12:16.619Z,18.23
2018-12-30T19:14:45.500Z,18.90
2018-12-30T19:17:14.430Z,17.17
2018-12-30T19:19:43.426Z,18.67
2018-12-30T19:22:12.373Z,17.73
2018-12-30T19:24:41.349Z,18.17
2018-12-30T19:27:10.422Z,18.40
2018-12-30T19:29:39.276Z,18.20
2018-12-30T19:32:08.182Z,18.00
2018-12-30T19:34:37.049Z,17.57
2018-12-30T19:37:06.079Z,17.50
2018-12-30T19:39:35.061Z,18.03
2018-12-30T19:42:07.605Z,18.67
2018-12-30T19:44:36.439Z,17.87
2018-12-30T19:47:05.364Z,18.03
2018-12-30T19:49:34.430Z,16.37
2018-12-30T19:52:03.262Z,18.77
2018-12-30T19:54:32.214Z,17.63
2018-12-30T19:57:01.203Z,18.40
2018-12-30T19:59:30.091Z,17.30
2018-12-30T20:01:58.951Z,19.10
2018-12-30T20:04:27.936Z,18.43
2018-12-30T20:06:56.843Z,17.47
2018-12-30T20:09:25.773Z,18.30
2018-12-30T20:11:54.661Z,18.03
2018-12-30T20:14:23.600Z,18.30
2018-12-30T20:16:52.458Z,19.43
2018-12-30T20:19:21.436Z,17.50
2018-12-30T20:21:50.340Z,17.83
2018-12-30T20:24:19.214Z,17.40
2018-12-30T20:26:48.232Z,17.17
2018-12-30T20:29:17.188Z,17.80
2018-12-30T20:31:46.091Z,17.57
2018-12-30T20:34:15.003Z,16.13
2018-12-30T20:36:44.790Z,17.20
2018-12-30T20:39:13.798Z,16.90
2018-12-30T20:41:42.734Z,17.60
2018-12-30T20:44:11.596Z,17.03
2018-12-30T20:46:40.435Z,16.43
2018-12-30T20:49:09.306Z,16.37
2018-12-30T20:51:38.195Z,15.67
2018-12-30T20:54:07.106Z,16.40
2018-12-30T20:56:37.774Z,16.33
2018-12-30T20:59:06.558Z,16.17
2018-12-30T21:01:35.616Z,16.20
2018-12-30T21:04:04.549Z,15.00
2018-12-30T21:06:33.566Z,15.73
2018-12-30T21:09:02.604Z,16.50
2018-12-30T21:11:31.571Z,16.13
2018-12-30T21:14:00.412Z,15.37
2018-12-30T21:16:29.312Z,16.20
2018-12-30T21:18:58.248Z,14.70
2018-12-30T21:21:27.110Z,14.77
2018-12-30T21:23:56.070Z,16.10
2018-12-30T21:26:25.103Z,15.90
2018-12-30T21:28:54.026Z,16.63
2018-12-30T21:31:22.871Z,13.40
2018-12-30T21:33:51.807Z,14.07
2018-12-30T21:36:20.747Z,15.10
2018-12-30T21:38:49.580Z,14.80
2018-12-30T21:41:18.426Z,13.77
2018-12-30T21:43:47.353Z,14.93
2018-12-30T21:46:16.400Z,14.17
2018-12-30T21:48:45.235Z,12.43
2018-12-30T21:51:14.147Z,14.00
2018-12-30T21:53:43.116Z,13.30
2018-12-30T21:56:11.938Z,14.10
2018-12-30T21:58:40.792Z,15.03
2018-12-30T22:01:09.694Z,13.23
2018-12-30T22:03:38.607Z,13.70
2018-12-30T22:06:07.466Z,13.63
2018-12-30T22:08:36.482Z,12.37
2018-12-30T22:11:05.455Z,12.07
2018-12-30T22:13:34.347Z,13.37
2018-12-30T22:16:03.329Z,13.20
2018-12-30T22:18:32.445Z,11.83
2018-12-30T22:21:01.431Z,14.00
2018-12-30T22:23:30.317Z,11.77
2018-12-30T22:25:59.184Z,11.40
2018-12-30T22:28:28.044Z,12.00
2018-12-30T22:30:56.905Z,12.33
2018-12-30T22:33:25.746Z,13.40
2018-12-30T22:35:54.602Z,14.43
2018-12-30T22:38:23.793Z,13.43
2018-12-30T22:40:52.678Z,13.33
2018-12-30T22:43:21.555Z,13.27
2018-12-30T22:45:50.411Z,14.17
2018-12-30T22:48:19.277Z,14.53
2018-12-30T22:50:48.094Z,13.57
2018-12-30T22:53:36.255Z,13.03
2018-12-30T22:56:05.428Z,14.43
2018-12-30T22:58:34.428Z,13.00
2018-12-30T23:01:07.040Z,14.07
2018-12-30T23:03:35.946Z,13.83
2018-12-30T23:06:04.822Z,13.57
2018-12-30T23:08:33.697Z,14.80
2018-12-30T23:11:02.582Z,13.90
2018-12-30T23:13:31.420Z,14.83
2018-12-30T23:16:00.380Z,13.67
2018-12-30T23:18:29.223Z,14.40
2018-12-30T23:20:58.034Z,14.23
2018-12-30T23:23:26.895Z,13.00
2018-12-30T23:25:55.699Z,13.20
2018-12-30T23:28:24.506Z,13.67
2018-12-30T23:30:53.343Z,11.80
2018-12-30T23:33:22.183Z,13.10
2018-12-30T23:35:51.007Z,12.50
2018-12-30T23:38:20.063Z,13.63
2018-12-30T23:40:48.882Z,14.30
2018-12-30T23:43:17.720Z,14.70
2018-12-30T23:45:46.559Z,13.10
2018-12-30T23:48:15.385Z,14.33
2018-12-30T23:50:44.308Z,13.73
2018-12-30T23:53:13.186Z,12.90
2018-12-30T23:55:42.088Z,13.10
2018-12-30T23:58:10.935Z,13.80
